sensor_id;sensor_type;location;lat;lon;timestamp;pressure;altitude;pressure_sealevel;temperature
38249;BMP280;24045;51.138;17.126;2023-06-14T00:10:04;100322.91;;;10.97
38249;BMP280;24045;51.138;17.126;2023-06-14T00:25:07;100320.35;;;10.67
38249;BMP280;24045;51.138;17.126;2023-06-14T00:40:30;100326.83;;;10.32
38249;BMP280;24045;51.138;17.126;2023-06-14T00:55:33;100330.30;;;10.21
38249;BMP280;24045;51.138;17.126;2023-06-14T01:25:57;100333.86;;;10.48
38249;BMP280;24045;51.138;17.126;2023-06-14T01:41:00;100330.92;;;10.44
38249;BMP280;24045;51.138;17.126;2023-06-14T01:56:05;100325.44;;;10.29
38249;BMP280;24045;51.138;17.126;2023-06-14T02:11:09;100327.27;;;10.17
38249;BMP280;24045;51.138;17.126;2023-06-14T02:26:12;100314.80;;;10.04
38249;BMP280;24045;51.138;17.126;2023-06-14T02:41:14;100325.94;;;10.05
38249;BMP280;24045;51.138;17.126;2023-06-14T02:56:17;100320.98;;;10.01
38249;BMP280;24045;51.138;17.126;2023-06-14T03:11:24;100323.14;;;10.07
38249;BMP280;24045;51.138;17.126;2023-06-14T03:26:27;100327.74;;;10.67
38249;BMP280;24045;51.138;17.126;2023-06-14T03:41:30;100328.92;;;11.27
38249;BMP280;24045;51.138;17.126;2023-06-14T03:56:33;100340.65;;;12.61
38249;BMP280;24045;51.138;17.126;2023-06-14T04:11:39;100336.85;;;13.35
38249;BMP280;24045;51.138;17.126;2023-06-14T04:26:42;100332.98;;;13.74
38249;BMP280;24045;51.138;17.126;2023-06-14T04:41:47;100342.01;;;14.49
38249;BMP280;24045;51.138;17.126;2023-06-14T04:56:54;100348.27;;;14.29
38249;BMP280;24045;51.138;17.126;2023-06-14T05:12:03;100367.81;;;14.03
38249;BMP280;24045;51.138;17.126;2023-06-14T05:27:06;100375.11;;;13.98
38249;BMP280;24045;51.138;17.126;2023-06-14T05:42:11;100365.52;;;14.34
38249;BMP280;24045;51.138;17.126;2023-06-14T05:57:13;100368.17;;;14.76
38249;BMP280;24045;51.138;17.126;2023-06-14T06:12:17;100379.32;;;15.17
38249;BMP280;24045;51.138;17.126;2023-06-14T06:27:19;100389.42;;;16.21
38249;BMP280;24045;51.138;17.126;2023-06-14T06:42:23;100403.73;;;18.07
38249;BMP280;24045;51.138;17.126;2023-06-14T06:57:25;100415.96;;;17.20
38249;BMP280;24045;51.138;17.126;2023-06-14T07:12:28;100418.84;;;16.58
38249;BMP280;24045;51.138;17.126;2023-06-14T07:27:32;100414.29;;;18.01
38249;BMP280;24045;51.138;17.126;2023-06-14T07:42:35;100420.02;;;20.78
38249;BMP280;24045;51.138;17.126;2023-06-14T07:57:40;100424.25;;;20.88
38249;BMP280;24045;51.138;17.126;2023-06-14T08:12:43;100425.05;;;20.37
38249;BMP280;24045;51.138;17.126;2023-06-14T08:27:46;100411.61;;;21.22
38249;BMP280;24045;51.138;17.126;2023-06-14T08:42:51;100414.05;;;20.85
38249;BMP280;24045;51.138;17.126;2023-06-14T08:57:56;100417.45;;;20.35
38249;BMP280;24045;51.138;17.126;2023-06-14T09:13:03;100413.69;;;20.55
38249;BMP280;24045;51.138;17.126;2023-06-14T09:28:07;100416.70;;;20.13
38249;BMP280;24045;51.138;17.126;2023-06-14T09:43:11;100426.88;;;18.76
38249;BMP280;24045;51.138;17.126;2023-06-14T09:58:16;100429.57;;;17.82
38249;BMP280;24045;51.138;17.126;2023-06-14T10:13:20;100421.73;;;19.35
38249;BMP280;24045;51.138;17.126;2023-06-14T10:28:23;100427.19;;;19.76
38249;BMP280;24045;51.138;17.126;2023-06-14T10:43:27;100422.24;;;20.36
38249;BMP280;24045;51.138;17.126;2023-06-14T10:58:30;100415.63;;;20.93
38249;BMP280;24045;51.138;17.126;2023-06-14T11:13:33;100406.98;;;20.47
38249;BMP280;24045;51.138;17.126;2023-06-14T11:28:40;100398.64;;;20.25
38249;BMP280;24045;51.138;17.126;2023-06-14T11:43:43;100391.79;;;20.49
38249;BMP280;24045;51.138;17.126;2023-06-14T11:58:46;100389.10;;;20.77
38249;BMP280;24045;51.138;17.126;2023-06-14T12:13:49;100385.35;;;20.04
38249;BMP280;24045;51.138;17.126;2023-06-14T12:28:52;100389.85;;;18.96
38249;BMP280;24045;51.138;17.126;2023-06-14T12:43:55;100384.44;;;18.49
38249;BMP280;24045;51.138;17.126;2023-06-14T12:58:58;100369.86;;;18.96
38249;BMP280;24045;51.138;17.126;2023-06-14T13:14:01;100367.94;;;19.02
38249;BMP280;24045;51.138;17.126;2023-06-14T13:29:24;100358.63;;;19.28
38249;BMP280;24045;51.138;17.126;2023-06-14T13:44:27;100352.79;;;20.56
38249;BMP280;24045;51.138;17.126;2023-06-14T13:59:30;100357.70;;;21.10
38249;BMP280;24045;51.138;17.126;2023-06-14T14:14:33;100359.52;;;20.33
38249;BMP280;24045;51.138;17.126;2023-06-14T14:29:36;100366.89;;;18.53
38249;BMP280;24045;51.138;17.126;2023-06-14T14:44:39;100372.60;;;18.00
38249;BMP280;24045;51.138;17.126;2023-06-14T14:59:42;100383.77;;;17.83
38249;BMP280;24045;51.138;17.126;2023-06-14T15:14:45;100384.52;;;18.02
38249;BMP280;24045;51.138;17.126;2023-06-14T15:29:48;100379.93;;;18.06
38249;BMP280;24045;51.138;17.126;2023-06-14T15:44:53;100377.27;;;18.42
38249;BMP280;24045;51.138;17.126;2023-06-14T15:59:56;100376.31;;;18.56
38249;BMP280;24045;51.138;17.126;2023-06-14T16:14:59;100362.10;;;18.18
38249;BMP280;24045;51.138;17.126;2023-06-14T16:30:02;100366.92;;;18.22
38249;BMP280;24045;51.138;17.126;2023-06-14T16:45:06;100375.75;;;18.15
38249;BMP280;24045;51.138;17.126;2023-06-14T17:00:10;100381.10;;;18.09
38249;BMP280;24045;51.138;17.126;2023-06-14T17:15:13;100384.80;;;17.83
38249;BMP280;24045;51.138;17.126;2023-06-14T17:30:16;100393.86;;;17.52
38249;BMP280;24045;51.138;17.126;2023-06-14T17:45:19;100393.25;;;17.50
38249;BMP280;24045;51.138;17.126;2023-06-14T18:00:22;100399.18;;;17.51
38249;BMP280;24045;51.138;17.126;2023-06-14T18:15:25;100392.06;;;17.55
38249;BMP280;24045;51.138;17.126;2023-06-14T18:30:28;100398.34;;;17.48
38249;BMP280;24045;51.138;17.126;2023-06-14T18:45:31;100400.72;;;17.26
38249;BMP280;24045;51.138;17.126;2023-06-14T19:00:34;100415.57;;;17.03
38249;BMP280;24045;51.138;17.126;2023-06-14T19:15:37;100423.21;;;16.86
38249;BMP280;24045;51.138;17.126;2023-06-14T19:30:40;100429.23;;;16.42
38249;BMP280;24045;51.138;17.126;2023-06-14T19:45:45;100430.68;;;15.87
38249;BMP280;24045;51.138;17.126;2023-06-14T20:00:48;100435.27;;;15.44
38249;BMP280;24045;51.138;17.126;2023-06-14T20:15:50;100443.69;;;15.14
38249;BMP280;24045;51.138;17.126;2023-06-14T20:30:54;100452.38;;;14.98
38249;BMP280;24045;51.138;17.126;2023-06-14T20:45:57;100452.65;;;14.88
38249;BMP280;24045;51.138;17.126;2023-06-14T21:01:00;100446.55;;;14.87
38249;BMP280;24045;51.138;17.126;2023-06-14T21:16:04;100441.46;;;14.81
38249;BMP280;24045;51.138;17.126;2023-06-14T21:31:10;100437.91;;;14.75
38249;BMP280;24045;51.138;17.126;2023-06-14T21:46:13;100450.77;;;14.66
38249;BMP280;24045;51.138;17.126;2023-06-14T22:01:16;100454.90;;;14.50
38249;BMP280;24045;51.138;17.126;2023-06-14T22:16:19;100444.04;;;14.33
38249;BMP280;24045;51.138;17.126;2023-06-14T22:31:23;100438.77;;;14.04
38249;BMP280;24045;51.138;17.126;2023-06-14T22:46:26;100433.17;;;13.74
38249;BMP280;24045;51.138;17.126;2023-06-14T23:01:31;100425.88;;;13.39
38249;BMP280;24045;51.138;17.126;2023-06-14T23:16:33;100424.77;;;13.14
38249;BMP280;24045;51.138;17.126;2023-06-14T23:31:38;100423.63;;;12.83
38249;BMP280;24045;51.138;17.126;2023-06-14T23:46:41;100423.46;;;12.75
